sensor_id;sensor_type;location;lat;lon;timestamp;P1;durP1;ratioP1;P2;durP2;ratioP2
22660;SDS011;11497;52.222;21.246;2024-03-17T00:00:09;8.20;;;3.30;;
22660;SDS011;11497;52.222;21.246;2024-03-17T00:03:00;9.30;;;3.38;;
22660;SDS011;11497;52.222;21.246;2024-03-17T00:05:27;14.07;;;3.42;;
22660;SDS011;11497;52.222;21.246;2024-03-17T00:07:54;12.07;;;3.35;;
22660;SDS011;11497;52.222;21.246;2024-03-17T00:10:21;12.93;;;3.10;;
22660;SDS011;11497;52.222;21.246;2024-03-17T00:12:48;11.88;;;3.33;;
22660;SDS011;11497;52.222;21.246;2024-03-17T00:15:16;10.95;;;3.15;;
22660;SDS011;11497;52.222;21.246;2024-03-17T00:17:44;8.27;;;3.03;;
22660;SDS011;11497;52.222;21.246;2024-03-17T00:20:10;12.82;;;4.03;;
22660;SDS011;11497;52.222;21.246;2024-03-17T00:22:48;12.63;;;3.08;;
22660;SDS011;11497;52.222;21.246;2024-03-17T00:25:16;15.00;;;3.17;;
22660;SDS011;11497;52.222;21.246;2024-03-17T00:27:43;12.60;;;3.20;;
22660;SDS011;11497;52.222;21.246;2024-03-17T00:30:13;19.08;;;3.38;;
22660;SDS011;11497;52.222;21.246;2024-03-17T00:32:41;11.80;;;3.25;;
22660;SDS011;11497;52.222;21.246;2024-03-17T00:35:09;8.50;;;2.95;;
22660;SDS011;11497;52.222;21.246;2024-03-17T00:37:39;14.25;;;3.10;;
22660;SDS011;11497;52.222;21.246;2024-03-17T00:40:06;10.50;;;3.58;;
22660;SDS011;11497;52.222;21.246;2024-03-17T00:42:34;11.30;;;2.80;;
22660;SDS011;11497;52.222;21.246;2024-03-17T00:45:00;10.77;;;2.92;;
22660;SDS011;11497;52.222;21.246;2024-03-17T00:47:28;8.75;;;2.97;;
22660;SDS011;11497;52.222;21.246;2024-03-17T00:49:55;13.75;;;3.05;;
22660;SDS011;11497;52.222;21.246;2024-03-17T00:52:22;13.07;;;2.95;;
22660;SDS011;11497;52.222;21.246;2024-03-17T00:54:49;8.60;;;2.95;;
22660;SDS011;11497;52.222;21.246;2024-03-17T00:57:16;11.45;;;2.88;;
22660;SDS011;11497;52.222;21.246;2024-03-17T00:59:43;15.60;;;3.00;;
22660;SDS011;11497;52.222;21.246;2024-03-17T01:02:16;12.52;;;2.80;;
22660;SDS011;11497;52.222;21.246;2024-03-17T01:04:44;11.25;;;2.75;;
22660;SDS011;11497;52.222;21.246;2024-03-17T01:07:11;13.30;;;2.50;;
22660;SDS011;11497;52.222;21.246;2024-03-17T01:09:38;8.60;;;2.63;;
22660;SDS011;11497;52.222;21.246;2024-03-17T01:12:05;8.68;;;2.40;;
22660;SDS011;11497;52.222;21.246;2024-03-17T01:14:32;11.23;;;2.70;;
22660;SDS011;11497;52.222;21.246;2024-03-17T01:17:01;8.15;;;2.67;;
22660;SDS011;11497;52.222;21.246;2024-03-17T01:19:31;9.43;;;2.40;;
22660;SDS011;11497;52.222;21.246;2024-03-17T01:22:01;11.60;;;2.75;;
22660;SDS011;11497;52.222;21.246;2024-03-17T01:24:28;14.70;;;2.70;;
22660;SDS011;11497;52.222;21.246;2024-03-17T01:26:59;11.88;;;2.80;;
22660;SDS011;11497;52.222;21.246;2024-03-17T01:29:27;7.47;;;2.42;;
22660;SDS011;11497;52.222;21.246;2024-03-17T01:31:54;10.73;;;3.22;;
22660;SDS011;11497;52.222;21.246;2024-03-17T01:34:21;11.25;;;3.17;;
22660;SDS011;11497;52.222;21.246;2024-03-17T01:36:48;14.88;;;3.03;;
22660;SDS011;11497;52.222;21.246;2024-03-17T01:39:16;8.18;;;2.75;;
22660;SDS011;11497;52.222;21.246;2024-03-17T01:41:44;13.93;;;2.63;;
22660;SDS011;11497;52.222;21.246;2024-03-17T01:44:23;8.93;;;2.42;;
22660;SDS011;11497;52.222;21.246;2024-03-17T01:46:56;11.55;;;2.92;;
22660;SDS011;11497;52.222;21.246;2024-03-17T01:49:23;13.43;;;2.45;;
22660;SDS011;11497;52.222;21.246;2024-03-17T01:51:52;12.88;;;2.75;;
22660;SDS011;11497;52.222;21.246;2024-03-17T01:54:20;13.43;;;3.42;;
22660;SDS011;11497;52.222;21.246;2024-03-17T01:56:47;12.70;;;2.70;;
22660;SDS011;11497;52.222;21.246;2024-03-17T01:59:15;14.63;;;3.10;;
22660;SDS011;11497;52.222;21.246;2024-03-17T02:01:42;14.98;;;3.50;;
22660;SDS011;11497;52.222;21.246;2024-03-17T02:04:10;8.95;;;3.08;;
22660;SDS011;11497;52.222;21.246;2024-03-17T02:06:37;16.05;;;2.75;;
22660;SDS011;11497;52.222;21.246;2024-03-17T02:09:05;10.05;;;2.88;;
22660;SDS011;11497;52.222;21.246;2024-03-17T02:11:33;12.85;;;2.75;;
22660;SDS011;11497;52.222;21.246;2024-03-17T02:14:00;11.32;;;2.80;;
22660;SDS011;11497;52.222;21.246;2024-03-17T02:16:27;7.05;;;2.75;;
22660;SDS011;11497;52.222;21.246;2024-03-17T02:18:57;11.73;;;2.88;;
22660;SDS011;11497;52.222;21.246;2024-03-17T02:21:25;11.73;;;2.88;;
22660;SDS011;11497;52.222;21.246;2024-03-17T02:23:55;15.35;;;2.70;;
22660;SDS011;11497;52.222;21.246;2024-03-17T02:26:23;10.07;;;2.72;;
22660;SDS011;11497;52.222;21.246;2024-03-17T02:28:51;9.65;;;2.70;;
22660;SDS011;11497;52.222;21.246;2024-03-17T02:31:18;11.77;;;2.60;;
22660;SDS011;11497;52.222;21.246;2024-03-17T02:33:45;11.82;;;2.97;;
22660;SDS011;11497;52.222;21.246;2024-03-17T02:36:12;17.98;;;2.60;;
22660;SDS011;11497;52.222;21.246;2024-03-17T02:38:39;9.25;;;3.00;;
22660;SDS011;11497;52.222;21.246;2024-03-17T02:41:26;13.77;;;3.13;;
22660;SDS011;11497;52.222;21.246;2024-03-17T02:43:54;15.95;;;3.15;;
22660;SDS011;11497;52.222;21.246;2024-03-17T02:46:21;11.57;;;2.85;;
22660;SDS011;11497;52.222;21.246;2024-03-17T02:48:50;14.98;;;2.88;;
22660;SDS011;11497;52.222;21.246;2024-03-17T02:51:19;14.73;;;3.08;;
22660;SDS011;11497;52.222;21.246;2024-03-17T02:53:47;12.90;;;3.30;;
22660;SDS011;11497;52.222;21.246;2024-03-17T02:56:15;11.90;;;3.13;;
22660;SDS011;11497;52.222;21.246;2024-03-17T02:58:47;14.48;;;2.92;;
22660;SDS011;11497;52.222;21.246;2024-03-17T03:01:17;14.30;;;3.38;;
22660;SDS011;11497;52.222;21.246;2024-03-17T03:03:45;11.20;;;2.72;;
22660;SDS011;11497;52.222;21.246;2024-03-17T03:06:12;17.10;;;3.30;;
22660;SDS011;11497;52.222;21.246;2024-03-17T03:08:40;8.02;;;2.75;;
22660;SDS011;11497;52.222;21.246;2024-03-17T03:11:08;12.70;;;2.80;;
22660;SDS011;11497;52.222;21.246;2024-03-17T03:13:38;11.35;;;2.80;;
22660;SDS011;11497;52.222;21.246;2024-03-17T03:16:06;16.80;;;2.80;;
22660;SDS011;11497;52.222;21.246;2024-03-17T03:18:37;12.35;;;2.80;;
22660;SDS011;11497;52.222;21.246;2024-03-17T03:21:07;11.35;;;3.13;;
22660;SDS011;11497;52.222;21.246;2024-03-17T03:23:34;11.27;;;3.13;;
22660;SDS011;11497;52.222;21.246;2024-03-17T03:26:01;11.57;;;2.92;;
22660;SDS011;11497;52.222;21.246;2024-03-17T03:28:30;10.30;;;2.53;;
22660;SDS011;11497;52.222;21.246;2024-03-17T03:30:58;12.05;;;2.95;;
22660;SDS011;11497;52.222;21.246;2024-03-17T03:33:25;13.18;;;2.67;;
22660;SDS011;11497;52.222;21.246;2024-03-17T03:35:53;11.48;;;2.55;;
22660;SDS011;11497;52.222;21.246;2024-03-17T03:38:21;13.55;;;3.10;;
22660;SDS011;11497;52.222;21.246;2024-03-17T03:40:49;8.68;;;3.00;;
22660;SDS011;11497;52.222;21.246;2024-03-17T03:43:15;12.80;;;2.88;;
22660;SDS011;11497;52.222;21.246;2024-03-17T03:45:43;15.48;;;2.80;;
22660;SDS011;11497;52.222;21.246;2024-03-17T03:48:11;12.68;;;3.22;;
22660;SDS011;11497;52.222;21.246;2024-03-17T03:50:38;11.20;;;2.85;;
22660;SDS011;11497;52.222;21.246;2024-03-17T03:53:05;11.68;;;2.67;;
22660;SDS011;11497;52.222;21.246;2024-03-17T03:55:32;12.35;;;3.00;;
22660;SDS011;11497;52.222;21.246;2024-03-17T03:57:59;12.75;;;2.78;;
22660;SDS011;11497;52.222;21.246;2024-03-17T04:00:26;12.50;;;2.70;;
22660;SDS011;11497;52.222;21.246;2024-03-17T04:02:58;13.13;;;2.78;;
22660;SDS011;11497;52.222;21.246;2024-03-17T04:05:26;9.18;;;2.75;;
22660;SDS011;11497;52.222;21.246;2024-03-17T04:07:53;14.60;;;3.63;;
22660;SDS011;11497;52.222;21.246;2024-03-17T04:10:21;11.75;;;3.55;;
22660;SDS011;11497;52.222;21.246;2024-03-17T04:12:48;12.27;;;2.70;;
22660;SDS011;11497;52.222;21.246;2024-03-17T04:15:15;13.38;;;3.05;;
22660;SDS011;11497;52.222;21.246;2024-03-17T04:17:42;9.57;;;2.50;;
22660;SDS011;11497;52.222;21.246;2024-03-17T04:20:09;14.05;;;3.33;;
22660;SDS011;11497;52.222;21.246;2024-03-17T04:22:39;10.15;;;3.05;;
22660;SDS011;11497;52.222;21.246;2024-03-17T04:25:09;14.80;;;3.30;;
22660;SDS011;11497;52.222;21.246;2024-03-17T04:27:36;14.65;;;3.70;;
22660;SDS011;11497;52.222;21.246;2024-03-17T04:30:05;10.30;;;3.88;;
22660;SDS011;11497;52.222;21.246;2024-03-17T04:32:32;13.57;;;3.88;;
22660;SDS011;11497;52.222;21.246;2024-03-17T04:35:00;17.70;;;3.60;;
22660;SDS011;11497;52.222;21.246;2024-03-17T04:37:27;12.63;;;3.25;;
22660;SDS011;11497;52.222;21.246;2024-03-17T04:39:54;14.63;;;3.85;;
22660;SDS011;11497;52.222;21.246;2024-03-17T04:42:23;16.05;;;4.00;;
22660;SDS011;11497;52.222;21.246;2024-03-17T04:44:50;10.80;;;3.55;;
22660;SDS011;11497;52.222;21.246;2024-03-17T04:47:17;8.85;;;3.75;;
22660;SDS011;11497;52.222;21.246;2024-03-17T04:49:44;20.35;;;4.25;;
22660;SDS011;11497;52.222;21.246;2024-03-17T04:52:11;19.67;;;4.53;;
22660;SDS011;11497;52.222;21.246;2024-03-17T04:54:38;17.55;;;4.75;;
22660;SDS011;11497;52.222;21.246;2024-03-17T04:57:08;19.73;;;4.88;;
22660;SDS011;11497;52.222;21.246;2024-03-17T04:59:36;19.45;;;4.13;;
22660;SDS011;11497;52.222;21.246;2024-03-17T05:02:04;19.02;;;4.32;;
22660;SDS011;11497;52.222;21.246;2024-03-17T05:04:31;19.65;;;4.60;;
22660;SDS011;11497;52.222;21.246;2024-03-17T05:06:58;11.25;;;4.05;;
22660;SDS011;11497;52.222;21.246;2024-03-17T05:09:25;14.35;;;4.20;;
22660;SDS011;11497;52.222;21.246;2024-03-17T05:11:52;15.43;;;4.28;;
22660;SDS011;11497;52.222;21.246;2024-03-17T05:14:19;16.70;;;4.57;;
22660;SDS011;11497;52.222;21.246;2024-03-17T05:16:49;10.40;;;3.90;;
22660;SDS011;11497;52.222;21.246;2024-03-17T05:19:17;18.30;;;4.10;;
22660;SDS011;11497;52.222;21.246;2024-03-17T05:21:47;15.52;;;4.15;;
22660;SDS011;11497;52.222;21.246;2024-03-17T05:24:14;17.05;;;5.32;;
22660;SDS011;11497;52.222;21.246;2024-03-17T05:26:41;11.45;;;3.97;;
22660;SDS011;11497;52.222;21.246;2024-03-17T05:29:08;14.13;;;4.13;;
22660;SDS011;11497;52.222;21.246;2024-03-17T05:31:35;17.23;;;4.60;;
22660;SDS011;11497;52.222;21.246;2024-03-17T05:34:05;15.45;;;4.07;;
22660;SDS011;11497;52.222;21.246;2024-03-17T05:36:33;12.50;;;4.15;;
22660;SDS011;11497;52.222;21.246;2024-03-17T05:39:01;12.82;;;4.30;;
22660;SDS011;11497;52.222;21.246;2024-03-17T05:41:28;11.90;;;3.85;;
22660;SDS011;11497;52.222;21.246;2024-03-17T05:43:55;14.18;;;3.70;;
22660;SDS011;11497;52.222;21.246;2024-03-17T05:46:25;9.25;;;3.85;;
22660;SDS011;11497;52.222;21.246;2024-03-17T05:48:52;14.25;;;4.32;;
22660;SDS011;11497;52.222;21.246;2024-03-17T05:51:19;15.73;;;3.78;;
22660;SDS011;11497;52.222;21.246;2024-03-17T05:53:47;12.98;;;4.22;;
22660;SDS011;11497;52.222;21.246;2024-03-17T05:56:14;13.77;;;3.90;;
22660;SDS011;11497;52.222;21.246;2024-03-17T05:58:44;18.05;;;4.13;;
22660;SDS011;11497;52.222;21.246;2024-03-17T06:01:10;13.85;;;4.03;;
22660;SDS011;11497;52.222;21.246;2024-03-17T06:03:37;18.17;;;4.20;;
22660;SDS011;11497;52.222;21.246;2024-03-17T06:06:05;15.27;;;3.78;;
22660;SDS011;11497;52.222;21.246;2024-03-17T06:11:05;12.32;;;3.80;;
22660;SDS011;11497;52.222;21.246;2024-03-17T06:13:32;21.02;;;4.72;;
22660;SDS011;11497;52.222;21.246;2024-03-17T06:16:01;14.48;;;3.90;;
22660;SDS011;11497;52.222;21.246;2024-03-17T06:18:29;15.45;;;3.78;;
22660;SDS011;11497;52.222;21.246;2024-03-17T06:20:56;10.60;;;4.18;;
22660;SDS011;11497;52.222;21.246;2024-03-17T06:23:24;19.67;;;6.32;;
22660;SDS011;11497;52.222;21.246;2024-03-17T06:25:54;14.23;;;4.35;;
22660;SDS011;11497;52.222;21.246;2024-03-17T06:28:21;9.68;;;3.75;;
22660;SDS011;11497;52.222;21.246;2024-03-17T06:30:55;13.93;;;3.92;;
22660;SDS011;11497;52.222;21.246;2024-03-17T06:33:27;11.05;;;4.13;;
22660;SDS011;11497;52.222;21.246;2024-03-17T06:35:54;12.05;;;3.75;;
22660;SDS011;11497;52.222;21.246;2024-03-17T06:38:21;10.70;;;3.78;;
22660;SDS011;11497;52.222;21.246;2024-03-17T06:40:51;14.63;;;4.00;;
22660;SDS011;11497;52.222;21.246;2024-03-17T06:43:19;11.63;;;3.65;;
22660;SDS011;11497;52.222;21.246;2024-03-17T06:45:59;10.02;;;3.35;;
22660;SDS011;11497;52.222;21.246;2024-03-17T06:48:27;17.13;;;3.97;;
22660;SDS011;11497;52.222;21.246;2024-03-17T06:50:54;12.88;;;4.13;;
22660;SDS011;11497;52.222;21.246;2024-03-17T06:53:22;12.35;;;4.15;;
22660;SDS011;11497;52.222;21.246;2024-03-17T06:55:54;16.98;;;3.67;;
22660;SDS011;11497;52.222;21.246;2024-03-17T06:58:26;10.95;;;3.70;;
22660;SDS011;11497;52.222;21.246;2024-03-17T07:00:55;10.48;;;3.15;;
22660;SDS011;11497;52.222;21.246;2024-03-17T07:03:24;12.75;;;3.67;;
22660;SDS011;11497;52.222;21.246;2024-03-17T07:05:55;10.25;;;3.38;;
22660;SDS011;11497;52.222;21.246;2024-03-17T07:08:25;13.32;;;3.47;;
22660;SDS011;11497;52.222;21.246;2024-03-17T07:11:10;7.82;;;2.72;;
22660;SDS011;11497;52.222;21.246;2024-03-17T07:13:37;11.00;;;3.47;;
22660;SDS011;11497;52.222;21.246;2024-03-17T07:16:07;15.73;;;3.40;;
22660;SDS011;11497;52.222;21.246;2024-03-17T07:18:35;12.88;;;2.97;;
22660;SDS011;11497;52.222;21.246;2024-03-17T07:21:03;10.23;;;3.38;;
22660;SDS011;11497;52.222;21.246;2024-03-17T07:23:31;17.27;;;4.95;;
22660;SDS011;11497;52.222;21.246;2024-03-17T07:25:59;11.90;;;3.83;;
22660;SDS011;11497;52.222;21.246;2024-03-17T07:28:27;11.93;;;3.33;;
22660;SDS011;11497;52.222;21.246;2024-03-17T07:30:54;11.70;;;4.10;;
22660;SDS011;11497;52.222;21.246;2024-03-17T07:33:23;14.98;;;3.40;;
22660;SDS011;11497;52.222;21.246;2024-03-17T07:35:54;8.63;;;2.67;;
22660;SDS011;11497;52.222;21.246;2024-03-17T07:38:29;11.25;;;3.00;;
22660;SDS011;11497;52.222;21.246;2024-03-17T07:40:57;9.07;;;3.22;;
22660;SDS011;11497;52.222;21.246;2024-03-17T07:43:30;10.82;;;3.10;;
22660;SDS011;11497;52.222;21.246;2024-03-17T07:46:02;10.75;;;3.05;;
22660;SDS011;11497;52.222;21.246;2024-03-17T07:48:31;13.85;;;3.25;;
22660;SDS011;11497;52.222;21.246;2024-03-17T07:51:00;14.45;;;3.78;;
22660;SDS011;11497;52.222;21.246;2024-03-17T07:53:32;15.50;;;3.47;;
22660;SDS011;11497;52.222;21.246;2024-03-17T07:56:01;13.65;;;3.53;;
22660;SDS011;11497;52.222;21.246;2024-03-17T07:58:30;8.43;;;3.70;;
22660;SDS011;11497;52.222;21.246;2024-03-17T08:01:01;8.85;;;2.95;;
22660;SDS011;11497;52.222;21.246;2024-03-17T08:03:30;11.82;;;2.92;;
22660;SDS011;11497;52.222;21.246;2024-03-17T08:05:58;10.20;;;3.65;;
22660;SDS011;11497;52.222;21.246;2024-03-17T08:08:27;8.48;;;2.88;;
22660;SDS011;11497;52.222;21.246;2024-03-17T08:10:54;11.05;;;2.65;;
22660;SDS011;11497;52.222;21.246;2024-03-17T08:13:21;8.43;;;3.10;;
22660;SDS011;11497;52.222;21.246;2024-03-17T08:15:58;11.63;;;3.10;;
22660;SDS011;11497;52.222;21.246;2024-03-17T08:18:28;8.70;;;3.20;;
22660;SDS011;11497;52.222;21.246;2024-03-17T08:20:56;16.23;;;5.05;;
22660;SDS011;11497;52.222;21.246;2024-03-17T08:23:23;11.77;;;3.58;;
22660;SDS011;11497;52.222;21.246;2024-03-17T08:25:53;9.23;;;3.65;;
22660;SDS011;11497;52.222;21.246;2024-03-17T08:28:22;11.55;;;2.95;;
22660;SDS011;11497;52.222;21.246;2024-03-17T08:30:50;11.98;;;3.40;;
22660;SDS011;11497;52.222;21.246;2024-03-17T08:33:21;14.25;;;3.70;;
22660;SDS011;11497;52.222;21.246;2024-03-17T08:35:56;7.80;;;3.10;;
22660;SDS011;11497;52.222;21.246;2024-03-17T08:38:33;10.65;;;3.67;;
22660;SDS011;11497;52.222;21.246;2024-03-17T08:41:02;10.80;;;3.40;;
22660;SDS011;11497;52.222;21.246;2024-03-17T08:43:31;12.15;;;3.75;;
22660;SDS011;11497;52.222;21.246;2024-03-17T08:46:06;8.32;;;2.90;;
22660;SDS011;11497;52.222;21.246;2024-03-17T08:48:35;9.07;;;3.30;;
22660;SDS011;11497;52.222;21.246;2024-03-17T08:51:03;9.10;;;3.20;;
22660;SDS011;11497;52.222;21.246;2024-03-17T08:53:31;8.23;;;3.22;;
22660;SDS011;11497;52.222;21.246;2024-03-17T08:55:59;9.55;;;3.33;;
22660;SDS011;11497;52.222;21.246;2024-03-17T08:58:28;11.40;;;3.28;;
22660;SDS011;11497;52.222;21.246;2024-03-17T09:00:55;7.43;;;3.70;;
22660;SDS011;11497;52.222;21.246;2024-03-17T09:03:22;11.20;;;3.05;;
22660;SDS011;11497;52.222;21.246;2024-03-17T09:05:51;10.63;;;3.35;;
22660;SDS011;11497;52.222;21.246;2024-03-17T09:08:21;7.90;;;3.10;;
22660;SDS011;11497;52.222;21.246;2024-03-17T09:10:50;12.38;;;2.90;;
22660;SDS011;11497;52.222;21.246;2024-03-17T09:13:19;9.48;;;3.10;;
22660;SDS011;11497;52.222;21.246;2024-03-17T09:15:50;7.25;;;2.80;;
22660;SDS011;11497;52.222;21.246;2024-03-17T09:18:28;12.88;;;3.88;;
22660;SDS011;11497;52.222;21.246;2024-03-17T09:20:57;16.00;;;5.13;;
22660;SDS011;11497;52.222;21.246;2024-03-17T09:23:25;22.02;;;6.45;;
22660;SDS011;11497;52.222;21.246;2024-03-17T09:28:24;17.60;;;6.38;;
22660;SDS011;11497;52.222;21.246;2024-03-17T09:30:51;19.25;;;7.78;;
22660;SDS011;11497;52.222;21.246;2024-03-17T09:33:19;11.70;;;4.50;;
22660;SDS011;11497;52.222;21.246;2024-03-17T09:35:57;16.65;;;6.70;;
22660;SDS011;11497;52.222;21.246;2024-03-17T09:38:29;17.77;;;7.50;;
22660;SDS011;11497;52.222;21.246;2024-03-17T09:40:55;20.20;;;6.70;;
22660;SDS011;11497;52.222;21.246;2024-03-17T09:43:24;23.38;;;9.18;;
22660;SDS011;11497;52.222;21.246;2024-03-17T09:45:51;22.50;;;8.70;;
22660;SDS011;11497;52.222;21.246;2024-03-17T09:48:26;23.63;;;8.07;;
22660;SDS011;11497;52.222;21.246;2024-03-17T09:50:58;11.02;;;4.15;;
22660;SDS011;11497;52.222;21.246;2024-03-17T09:53:28;27.90;;;8.65;;
22660;SDS011;11497;52.222;21.246;2024-03-17T09:56:11;48.97;;;12.40;;
22660;SDS011;11497;52.222;21.246;2024-03-17T09:58:42;37.83;;;10.30;;
22660;SDS011;11497;52.222;21.246;2024-03-17T10:01:09;43.60;;;12.65;;
22660;SDS011;11497;52.222;21.246;2024-03-17T10:03:50;29.30;;;8.30;;
22660;SDS011;11497;52.222;21.246;2024-03-17T10:06:21;32.30;;;8.60;;
22660;SDS011;11497;52.222;21.246;2024-03-17T10:08:49;39.90;;;10.52;;
22660;SDS011;11497;52.222;21.246;2024-03-17T10:11:18;12.13;;;4.32;;
22660;SDS011;11497;52.222;21.246;2024-03-17T10:13:47;20.52;;;4.95;;
22660;SDS011;11497;52.222;21.246;2024-03-17T10:16:29;35.95;;;9.73;;
22660;SDS011;11497;52.222;21.246;2024-03-17T10:21:36;34.60;;;10.63;;
22660;SDS011;11497;52.222;21.246;2024-03-17T10:24:08;50.42;;;14.93;;
22660;SDS011;11497;52.222;21.246;2024-03-17T10:31:59;23.92;;;7.93;;
22660;SDS011;11497;52.222;21.246;2024-03-17T10:37:10;25.02;;;9.73;;
22660;SDS011;11497;52.222;21.246;2024-03-17T10:39:42;18.92;;;7.15;;
22660;SDS011;11497;52.222;21.246;2024-03-17T10:42:10;20.60;;;7.07;;
22660;SDS011;11497;52.222;21.246;2024-03-17T10:44:38;17.55;;;6.18;;
22660;SDS011;11497;52.222;21.246;2024-03-17T10:47:17;5.28;;;2.75;;
22660;SDS011;11497;52.222;21.246;2024-03-17T10:49:52;23.27;;;7.15;;
22660;SDS011;11497;52.222;21.246;2024-03-17T10:52:23;19.80;;;7.10;;
22660;SDS011;11497;52.222;21.246;2024-03-17T10:54:55;9.98;;;3.33;;
22660;SDS011;11497;52.222;21.246;2024-03-17T10:57:31;16.23;;;5.32;;
22660;SDS011;11497;52.222;21.246;2024-03-17T11:00:05;13.07;;;4.75;;
22660;SDS011;11497;52.222;21.246;2024-03-17T11:02:37;15.27;;;4.18;;
22660;SDS011;11497;52.222;21.246;2024-03-17T11:07:44;29.20;;;8.82;;
22660;SDS011;11497;52.222;21.246;2024-03-17T11:10:19;10.35;;;4.05;;
22660;SDS011;11497;52.222;21.246;2024-03-17T11:12:56;6.63;;;3.10;;
22660;SDS011;11497;52.222;21.246;2024-03-17T11:18:47;8.57;;;3.25;;
22660;SDS011;11497;52.222;21.246;2024-03-17T11:23:55;10.40;;;4.30;;
22660;SDS011;11497;52.222;21.246;2024-03-17T11:26:27;8.50;;;4.25;;
22660;SDS011;11497;52.222;21.246;2024-03-17T11:28:56;21.52;;;6.65;;
22660;SDS011;11497;52.222;21.246;2024-03-17T11:31:34;23.77;;;7.10;;
22660;SDS011;11497;52.222;21.246;2024-03-17T11:36:56;6.57;;;3.50;;
22660;SDS011;11497;52.222;21.246;2024-03-17T11:42:22;8.15;;;3.70;;
22660;SDS011;11497;52.222;21.246;2024-03-17T11:45:03;5.75;;;3.95;;
22660;SDS011;11497;52.222;21.246;2024-03-17T11:47:34;6.80;;;3.70;;
22660;SDS011;11497;52.222;21.246;2024-03-17T11:50:03;6.38;;;3.40;;
22660;SDS011;11497;52.222;21.246;2024-03-17T11:52:33;4.90;;;3.25;;
22660;SDS011;11497;52.222;21.246;2024-03-17T11:54:59;5.78;;;3.95;;
22660;SDS011;11497;52.222;21.246;2024-03-17T11:57:27;13.70;;;4.13;;
22660;SDS011;11497;52.222;21.246;2024-03-17T11:59:55;7.07;;;3.45;;
22660;SDS011;11497;52.222;21.246;2024-03-17T12:02:24;5.75;;;3.10;;
22660;SDS011;11497;52.222;21.246;2024-03-17T12:04:53;5.05;;;3.60;;
22660;SDS011;11497;52.222;21.246;2024-03-17T12:07:23;6.65;;;4.15;;
22660;SDS011;11497;52.222;21.246;2024-03-17T12:09:51;5.72;;;4.22;;
22660;SDS011;11497;52.222;21.246;2024-03-17T12:12:20;5.03;;;3.30;;
22660;SDS011;11497;52.222;21.246;2024-03-17T12:14:49;5.32;;;2.42;;
22660;SDS011;11497;52.222;21.246;2024-03-17T12:17:20;4.75;;;2.67;;
22660;SDS011;11497;52.222;21.246;2024-03-17T12:19:55;2.67;;;2.40;;
22660;SDS011;11497;52.222;21.246;2024-03-17T12:22:23;2.78;;;2.58;;
22660;SDS011;11497;52.222;21.246;2024-03-17T12:24:52;3.45;;;2.60;;
22660;SDS011;11497;52.222;21.246;2024-03-17T12:27:21;3.88;;;2.80;;
22660;SDS011;11497;52.222;21.246;2024-03-17T12:29:50;5.28;;;3.63;;
22660;SDS011;11497;52.222;21.246;2024-03-17T12:32:19;6.32;;;4.32;;
22660;SDS011;11497;52.222;21.246;2024-03-17T12:34:52;15.82;;;6.05;;
22660;SDS011;11497;52.222;21.246;2024-03-17T12:37:22;7.15;;;3.50;;
22660;SDS011;11497;52.222;21.246;2024-03-17T12:39:51;4.50;;;3.15;;
22660;SDS011;11497;52.222;21.246;2024-03-17T12:42:23;4.82;;;3.10;;
22660;SDS011;11497;52.222;21.246;2024-03-17T12:44:55;5.88;;;3.05;;
22660;SDS011;11497;52.222;21.246;2024-03-17T12:47:27;10.45;;;3.65;;
22660;SDS011;11497;52.222;21.246;2024-03-17T12:52:30;4.68;;;2.45;;
22660;SDS011;11497;52.222;21.246;2024-03-17T12:57:50;6.63;;;2.35;;
22660;SDS011;11497;52.222;21.246;2024-03-17T13:00:37;5.57;;;3.00;;
22660;SDS011;11497;52.222;21.246;2024-03-17T13:03:05;3.75;;;2.10;;
22660;SDS011;11497;52.222;21.246;2024-03-17T13:05:33;3.72;;;2.38;;
22660;SDS011;11497;52.222;21.246;2024-03-17T13:08:03;2.67;;;2.20;;
22660;SDS011;11497;52.222;21.246;2024-03-17T13:10:31;4.10;;;2.83;;
22660;SDS011;11497;52.222;21.246;2024-03-17T13:13:04;6.22;;;3.80;;
22660;SDS011;11497;52.222;21.246;2024-03-17T13:15:34;5.97;;;3.58;;
22660;SDS011;11497;52.222;21.246;2024-03-17T13:18:02;6.13;;;2.97;;
22660;SDS011;11497;52.222;21.246;2024-03-17T13:20:29;8.55;;;3.80;;
22660;SDS011;11497;52.222;21.246;2024-03-17T13:22:57;6.63;;;3.10;;
22660;SDS011;11497;52.222;21.246;2024-03-17T13:25:28;4.10;;;2.50;;
22660;SDS011;11497;52.222;21.246;2024-03-17T13:28:00;5.87;;;4.13;;
22660;SDS011;11497;52.222;21.246;2024-03-17T13:30:29;5.70;;;3.50;;
22660;SDS011;11497;52.222;21.246;2024-03-17T13:32:57;6.05;;;3.47;;
22660;SDS011;11497;52.222;21.246;2024-03-17T13:35:24;9.00;;;3.97;;
22660;SDS011;11497;52.222;21.246;2024-03-17T13:37:53;7.10;;;3.25;;
22660;SDS011;11497;52.222;21.246;2024-03-17T13:40:20;7.63;;;3.45;;
22660;SDS011;11497;52.222;21.246;2024-03-17T13:42:50;6.28;;;3.47;;
22660;SDS011;11497;52.222;21.246;2024-03-17T13:45:19;3.13;;;2.53;;
22660;SDS011;11497;52.222;21.246;2024-03-17T13:47:49;4.50;;;3.20;;
22660;SDS011;11497;52.222;21.246;2024-03-17T13:50:26;3.60;;;3.05;;
22660;SDS011;11497;52.222;21.246;2024-03-17T13:52:53;4.80;;;3.30;;
22660;SDS011;11497;52.222;21.246;2024-03-17T13:55:21;4.70;;;3.38;;
22660;SDS011;11497;52.222;21.246;2024-03-17T13:57:51;5.82;;;3.70;;
22660;SDS011;11497;52.222;21.246;2024-03-17T14:00:23;6.10;;;3.90;;
22660;SDS011;11497;52.222;21.246;2024-03-17T14:02:51;5.32;;;4.30;;
22660;SDS011;11497;52.222;21.246;2024-03-17T14:05:20;6.47;;;4.40;;
22660;SDS011;11497;52.222;21.246;2024-03-17T14:07:49;10.07;;;5.07;;
22660;SDS011;11497;52.222;21.246;2024-03-17T14:10:17;10.65;;;5.50;;
22660;SDS011;11497;52.222;21.246;2024-03-17T14:12:45;7.60;;;5.28;;
22660;SDS011;11497;52.222;21.246;2024-03-17T14:15:13;7.95;;;4.72;;
22660;SDS011;11497;52.222;21.246;2024-03-17T14:17:41;7.88;;;5.55;;
22660;SDS011;11497;52.222;21.246;2024-03-17T14:20:09;8.95;;;5.95;;
22660;SDS011;11497;52.222;21.246;2024-03-17T14:22:40;7.93;;;5.65;;
22660;SDS011;11497;52.222;21.246;2024-03-17T14:25:09;21.13;;;8.85;;
22660;SDS011;11497;52.222;21.246;2024-03-17T14:27:40;13.32;;;7.20;;
22660;SDS011;11497;52.222;21.246;2024-03-17T14:30:08;8.55;;;5.68;;
22660;SDS011;11497;52.222;21.246;2024-03-17T14:32:36;15.02;;;7.53;;
22660;SDS011;11497;52.222;21.246;2024-03-17T14:35:03;15.52;;;7.13;;
22660;SDS011;11497;52.222;21.246;2024-03-17T14:37:31;12.65;;;5.25;;
22660;SDS011;11497;52.222;21.246;2024-03-17T14:39:58;17.50;;;7.60;;
22660;SDS011;11497;52.222;21.246;2024-03-17T14:42:25;7.55;;;4.30;;
22660;SDS011;11497;52.222;21.246;2024-03-17T14:44:52;17.42;;;7.82;;
22660;SDS011;11497;52.222;21.246;2024-03-17T14:47:19;7.15;;;4.90;;
22660;SDS011;11497;52.222;21.246;2024-03-17T14:49:46;13.65;;;7.13;;
22660;SDS011;11497;52.222;21.246;2024-03-17T14:52:13;14.02;;;6.57;;
22660;SDS011;11497;52.222;21.246;2024-03-17T14:54:40;9.48;;;5.22;;
22660;SDS011;11497;52.222;21.246;2024-03-17T14:57:07;6.03;;;4.22;;
22660;SDS011;11497;52.222;21.246;2024-03-17T14:59:34;6.40;;;4.13;;
22660;SDS011;11497;52.222;21.246;2024-03-17T15:02:01;10.15;;;5.68;;
22660;SDS011;11497;52.222;21.246;2024-03-17T15:04:28;8.25;;;5.18;;
22660;SDS011;11497;52.222;21.246;2024-03-17T15:06:56;5.57;;;4.25;;
22660;SDS011;11497;52.222;21.246;2024-03-17T15:09:23;5.00;;;4.00;;
22660;SDS011;11497;52.222;21.246;2024-03-17T15:11:50;6.55;;;3.60;;